createdAt,value
2018-10-17T00:00:43.995Z,98.37
2018-10-17T00:03:13.073Z,98.95
2018-10-17T00:05:42.113Z,98.77
2018-10-17T00:08:11.148Z,98.88
2018-10-17T00:10:40.334Z,99.14
2018-10-17T00:15:45.134Z,99.56
2018-10-17T00:18:14.215Z,98.30
2018-10-17T00:20:43.236Z,98.52
2018-10-17T00:28:23.727Z,96.99
2018-10-17T00:30:52.855Z,97.30
2018-10-17T00:33:21.895Z,94.55
2018-10-17T00:35:50.948Z,95.89
2018-10-17T00:38:19.984Z,94.57
2018-10-17T00:40:49.069Z,95.07
2018-10-17T00:45:53.883Z,98.17
2018-10-17T00:48:24.905Z,99.51
2018-10-17T00:50:53.942Z,100.00
2018-10-17T00:53:22.981Z,100.00
2018-10-17T00:55:52.035Z,100.00
2018-10-17T00:58:21.077Z,100.00
2018-10-17T01:00:50.133Z,100.00
2018-10-17T01:03:20.109Z,100.00
2018-10-17T01:05:49.292Z,99.72
2018-10-17T01:10:55.132Z,98.46
2018-10-17T01:13:24.131Z,98.30
2018-10-17T01:15:53.164Z,98.48
2018-10-17T01:18:22.200Z,98.37
2018-10-17T01:20:52.181Z,98.28
2018-10-17T01:23:21.231Z,98.32
2018-10-17T01:25:50.287Z,97.65
2018-10-17T01:28:19.328Z,98.18
2018-10-17T01:35:59.862Z,97.43
2018-10-17T01:38:28.889Z,97.44
2018-10-17T01:40:58.057Z,98.07
2018-10-17T01:43:27.031Z,98.10
2018-10-17T01:45:56.056Z,97.72
2018-10-17T01:48:25.085Z,98.67
2018-10-17T01:50:54.132Z,98.80
2018-10-17T01:53:24.200Z,99.36
2018-10-17T01:55:54.206Z,98.82
2018-10-17T01:58:23.238Z,98.59
2018-10-17T02:00:52.293Z,98.48
2018-10-17T02:03:21.324Z,99.29
2018-10-17T02:05:50.410Z,98.60
2018-10-17T02:08:19.458Z,98.32
2018-10-17T02:14:08.661Z,97.79
2018-10-17T02:19:13.549Z,95.73
2018-10-17T02:21:42.600Z,97.63
2018-10-17T02:26:47.356Z,97.85
2018-10-17T02:29:16.452Z,97.25
2018-10-17T02:31:46.385Z,97.22
2018-10-17T02:34:15.440Z,97.52
2018-10-17T02:36:44.482Z,98.88
2018-10-17T02:41:49.329Z,99.82
2018-10-17T02:46:54.175Z,98.40
2018-10-17T02:49:23.210Z,98.61
2018-10-17T02:51:52.274Z,98.36
2018-10-17T02:54:21.322Z,97.18
2018-10-17T02:56:50.378Z,97.30
2018-10-17T03:01:55.183Z,95.97
2018-10-17T03:04:24.229Z,96.15
2018-10-17T03:06:53.293Z,96.34
2018-10-17T03:11:58.025Z,98.34
2018-10-17T03:14:27.088Z,98.42
2018-10-17T03:16:56.207Z,98.69
2018-10-17T03:19:26.226Z,98.93
2018-10-17T03:21:55.327Z,97.82
2018-10-17T03:26:49.950Z,96.93
2018-10-17T03:29:19.096Z,97.56
2018-10-17T03:31:49.244Z,98.81
2018-10-17T03:34:18.308Z,98.74
2018-10-17T03:36:47.365Z,97.39
2018-10-17T03:39:16.426Z,97.68
2018-10-17T03:41:46.458Z,99.58
2018-10-17T03:46:51.309Z,99.84
2018-10-17T03:49:20.450Z,100.00
2018-10-17T03:51:49.359Z,100.00
2018-10-17T03:54:18.424Z,100.00
2018-10-17T03:56:47.541Z,100.00
2018-10-17T03:59:16.667Z,100.00
2018-10-17T04:01:45.693Z,100.00
2018-10-17T04:06:50.513Z,100.00
2018-10-17T04:09:19.557Z,100.00
2018-10-17T04:11:48.600Z,100.00
2018-10-17T04:14:18.566Z,100.00
2018-10-17T04:19:23.354Z,100.00
2018-10-17T04:21:52.497Z,100.00
2018-10-17T04:24:21.553Z,100.00
2018-10-17T04:26:50.621Z,100.00
2018-10-17T04:31:55.448Z,100.00
2018-10-17T04:34:24.503Z,100.00
2018-10-17T04:36:54.490Z,99.51
2018-10-17T04:41:59.187Z,98.03
2018-10-17T04:44:28.237Z,98.98
2018-10-17T04:49:33.036Z,99.10
2018-10-17T04:52:02.088Z,100.00
2018-10-17T04:54:32.085Z,100.00
2018-10-17T04:57:01.156Z,99.66
2018-10-17T04:59:30.221Z,99.48
2018-10-17T05:01:59.266Z,100.00
2018-10-17T05:07:04.993Z,100.00
2018-10-17T05:09:34.022Z,100.00
2018-10-17T05:12:03.077Z,100.00
2018-10-17T05:14:32.129Z,100.00
2018-10-17T05:19:36.874Z,100.00
2018-10-17T05:22:05.934Z,100.00
2018-10-17T05:24:34.972Z,100.00
2018-10-17T05:27:04.050Z,100.00
2018-10-17T05:29:33.182Z,100.00
2018-10-17T05:32:02.176Z,100.00
2018-10-17T05:37:07.052Z,100.00
2018-10-17T05:42:13.674Z,100.00
2018-10-17T05:44:42.720Z,100.00
2018-10-17T05:47:11.793Z,100.00
2018-10-17T05:49:40.822Z,100.00
2018-10-17T05:52:09.879Z,100.00
2018-10-17T05:54:38.933Z,100.00
2018-10-17T05:57:22.337Z,100.00
2018-10-17T06:00:01.992Z,100.00
2018-10-17T06:02:42.449Z,100.00
2018-10-17T06:05:14.273Z,100.00
2018-10-17T06:07:43.638Z,100.00
2018-10-17T06:12:48.502Z,100.00
2018-10-17T06:15:17.553Z,100.00
2018-10-17T06:20:22.292Z,100.00
2018-10-17T06:22:51.394Z,100.00
2018-10-17T06:25:20.417Z,100.00
2018-10-17T06:27:49.486Z,100.00
2018-10-17T06:30:23.553Z,99.50
2018-10-17T06:32:52.611Z,99.61
2018-10-17T06:40:33.214Z,97.38
2018-10-17T06:45:39.953Z,96.86
2018-10-17T06:48:10.997Z,96.25
2018-10-17T06:50:45.005Z,95.89
2018-10-17T06:53:14.121Z,94.80
2018-10-17T06:58:18.823Z,93.02
2018-10-17T07:00:47.888Z,92.62
2018-10-17T07:05:52.642Z,90.40
2018-10-17T07:08:22.749Z,90.50
2018-10-17T07:10:53.676Z,90.72
2018-10-17T07:13:23.690Z,90.95
2018-10-17T07:15:52.909Z,90.93
2018-10-17T07:18:21.915Z,90.98
2018-10-17T07:20:59.437Z,90.33
2018-10-17T07:23:28.530Z,89.34
2018-10-17T07:25:58.610Z,89.31
2018-10-17T07:28:27.767Z,89.05
2018-10-17T07:30:56.890Z,88.11
2018-10-17T07:33:26.889Z,86.81
2018-10-17T07:35:55.982Z,86.80
2018-10-17T07:38:25.040Z,86.25
2018-10-17T07:40:55.100Z,86.25
2018-10-17T07:43:24.149Z,86.21
2018-10-17T07:45:53.194Z,83.77
2018-10-17T07:48:22.251Z,84.68
2018-10-17T07:50:51.304Z,84.16
2018-10-17T07:53:20.420Z,83.50
2018-10-17T07:55:50.374Z,82.85
2018-10-17T07:58:19.432Z,81.79
2018-10-17T08:00:50.414Z,82.58
2018-10-17T08:03:19.514Z,81.16
2018-10-17T08:05:48.549Z,81.52
2018-10-17T08:08:17.613Z,81.60
2018-10-17T08:10:46.665Z,79.07
2018-10-17T08:13:15.720Z,76.33
2018-10-17T08:15:44.769Z,75.78
2018-10-17T08:18:14.930Z,78.43
2018-10-17T08:20:44.063Z,77.79
2018-10-17T08:23:17.830Z,75.89
2018-10-17T08:25:48.136Z,70.91
2018-10-17T08:28:17.222Z,71.91
2018-10-17T08:33:24.001Z,69.69
2018-10-17T08:35:53.199Z,69.91
2018-10-17T08:38:22.128Z,67.61
2018-10-17T08:40:51.219Z,64.44
2018-10-17T08:43:20.254Z,64.06
2018-10-17T08:45:50.443Z,59.96
2018-10-17T08:50:56.285Z,49.21
2018-10-17T08:53:25.333Z,48.76
2018-10-17T08:55:54.433Z,51.34
2018-10-17T08:58:23.448Z,45.30
2018-10-17T09:03:28.271Z,41.63
2018-10-17T09:05:57.362Z,41.68
2018-10-17T09:08:26.395Z,40.23
2018-10-17T09:10:55.461Z,40.43
2018-10-17T09:13:24.809Z,34.58
2018-10-17T09:18:29.995Z,36.13
2018-10-17T09:21:00.257Z,34.02
2018-10-17T09:23:29.049Z,34.65
2018-10-17T09:25:58.117Z,29.69
2018-10-17T09:28:27.198Z,32.66
2018-10-17T09:30:56.262Z,31.04
2018-10-17T09:36:01.209Z,30.74
2018-10-17T09:38:30.251Z,32.17
2018-10-17T09:41:00.243Z,28.11
2018-10-17T09:43:29.394Z,28.31
2018-10-17T09:45:59.543Z,29.42
2018-10-17T09:48:28.524Z,29.05
2018-10-17T09:50:58.590Z,27.71
2018-10-17T09:53:27.707Z,22.40
2018-10-17T09:55:56.709Z,25.83
2018-10-17T09:58:25.779Z,24.01
2018-10-17T10:00:54.838Z,26.62
2018-10-17T10:03:27.051Z,24.92
2018-10-17T10:05:56.158Z,24.96
2018-10-17T10:08:25.175Z,23.89
2018-10-17T10:10:54.287Z,28.61
2018-10-17T10:13:23.333Z,23.95
2018-10-17T10:18:28.293Z,24.03
2018-10-17T10:20:57.352Z,23.39
2018-10-17T10:23:26.495Z,24.79
2018-10-17T10:25:55.482Z,23.20
2018-10-17T10:28:25.708Z,24.24
2018-10-17T10:30:54.633Z,28.01
2018-10-17T10:33:23.686Z,23.70
2018-10-17T10:38:28.629Z,21.32
2018-10-17T10:40:57.686Z,21.43
2018-10-17T10:43:26.732Z,20.60
2018-10-17T10:45:55.881Z,21.50
2018-10-17T10:48:25.890Z,23.07
2018-10-17T10:50:54.995Z,20.56
2018-10-17T10:53:24.020Z,21.62
2018-10-17T10:55:53.092Z,21.87
2018-10-17T10:58:22.236Z,21.64
2018-10-17T11:00:54.800Z,20.87
2018-10-17T11:03:23.867Z,20.53
2018-10-17T11:05:52.926Z,21.68
2018-10-17T11:08:22.993Z,21.49
2018-10-17T11:10:52.089Z,20.40
2018-10-17T11:13:22.109Z,20.31
2018-10-17T11:15:53.165Z,20.28
2018-10-17T11:18:22.265Z,18.81
2018-10-17T11:20:51.349Z,19.90
2018-10-17T11:25:57.231Z,18.84
2018-10-17T11:28:26.295Z,19.55
2018-10-17T11:30:56.345Z,20.68
2018-10-17T11:33:25.414Z,19.55
2018-10-17T11:35:57.936Z,18.71
2018-10-17T11:38:27.050Z,20.02
2018-10-17T11:43:31.931Z,18.25
2018-10-17T11:48:37.813Z,18.77
2018-10-17T11:51:06.933Z,20.27
2018-10-17T11:53:35.957Z,19.15
2018-10-17T11:56:05.035Z,18.80
2018-10-17T11:58:34.077Z,22.28
2018-10-17T12:03:39.059Z,22.84
2018-10-17T12:06:08.091Z,20.24
2018-10-17T12:08:37.264Z,19.11
2018-10-17T12:11:06.324Z,19.68
2018-10-17T12:13:35.402Z,21.21
2018-10-17T12:16:04.507Z,22.22
2018-10-17T12:18:33.562Z,22.43
2018-10-17T12:23:38.501Z,20.37
2018-10-17T12:26:09.523Z,21.03
2018-10-17T12:28:38.759Z,20.67
2018-10-17T12:31:07.689Z,21.99
2018-10-17T12:33:36.834Z,19.36
2018-10-17T12:38:41.769Z,18.80
2018-10-17T12:41:11.884Z,18.87
2018-10-17T12:43:40.829Z,21.16
2018-10-17T12:46:09.925Z,21.11
2018-10-17T12:48:38.991Z,18.66
2018-10-17T12:51:08.041Z,18.44
2018-10-17T12:53:39.142Z,19.74
2018-10-17T12:56:08.231Z,19.21
2018-10-17T12:58:37.217Z,19.78
2018-10-17T13:01:06.306Z,18.09
2018-10-17T13:03:35.340Z,19.71
2018-10-17T13:08:40.221Z,18.95
2018-10-17T13:11:09.393Z,18.52
2018-10-17T13:13:38.380Z,19.90
2018-10-17T13:16:07.474Z,20.05
2018-10-17T13:18:36.530Z,19.69
2018-10-17T13:23:41.471Z,18.66
2018-10-17T13:26:15.237Z,19.31
2018-10-17T13:28:44.345Z,18.79
2018-10-17T13:31:13.450Z,19.42
2018-10-17T13:36:19.803Z,20.42
2018-10-17T13:38:49.136Z,19.62
2018-10-17T13:41:18.270Z,20.47
2018-10-17T13:43:47.318Z,21.12
2018-10-17T13:46:16.377Z,20.96
2018-10-17T13:51:21.316Z,19.31
2018-10-17T13:53:54.583Z,19.77
2018-10-17T13:56:23.913Z,20.21
2018-10-17T13:58:52.976Z,19.93
2018-10-17T14:01:22.033Z,20.16
2018-10-17T14:06:27.006Z,22.32
2018-10-17T14:08:57.058Z,21.38
2018-10-17T14:11:26.147Z,22.13
2018-10-17T14:13:55.195Z,23.86
2018-10-17T14:16:25.252Z,24.07
2018-10-17T14:18:54.311Z,23.54
2018-10-17T14:21:23.363Z,24.62
2018-10-17T14:23:52.423Z,27.60
2018-10-17T14:26:22.658Z,28.00
2018-10-17T14:28:51.731Z,26.66
2018-10-17T14:31:20.790Z,26.44
2018-10-17T14:33:49.847Z,24.27
2018-10-17T14:36:18.967Z,23.33
2018-10-17T14:38:47.970Z,23.71
2018-10-17T14:41:17.049Z,25.74
2018-10-17T14:46:21.878Z,31.99
2018-10-17T14:48:50.934Z,32.74
2018-10-17T14:51:20.952Z,35.86
2018-10-17T14:56:26.752Z,34.14
2018-10-17T14:58:55.851Z,34.46
2018-10-17T15:04:00.731Z,33.70
2018-10-17T15:06:29.782Z,33.49
2018-10-17T15:08:59.819Z,37.26
2018-10-17T15:11:28.952Z,34.10
2018-10-17T15:13:57.958Z,34.38
2018-10-17T15:19:07.192Z,33.96
2018-10-17T15:21:36.226Z,35.89
2018-10-17T15:24:05.337Z,35.01
2018-10-17T15:26:34.336Z,35.54
2018-10-17T15:31:39.293Z,36.30
2018-10-17T15:34:08.307Z,37.28
2018-10-17T15:36:37.400Z,38.69
2018-10-17T15:41:42.303Z,38.79
2018-10-17T15:44:11.374Z,38.71
2018-10-17T15:46:40.425Z,39.68
2018-10-17T15:49:10.469Z,44.59
2018-10-17T15:51:43.465Z,42.35
2018-10-17T15:54:12.792Z,42.38
2018-10-17T15:56:42.620Z,42.77
2018-10-17T15:59:11.682Z,46.67
2018-10-17T16:01:40.766Z,45.28
2018-10-17T16:04:09.845Z,48.15
2018-10-17T16:06:38.900Z,49.55
2018-10-17T16:09:08.145Z,49.92
2018-10-17T16:11:41.024Z,47.89
2018-10-17T16:16:45.763Z,48.48
2018-10-17T16:19:14.932Z,48.31
2018-10-17T16:21:44.022Z,53.72
2018-10-17T16:24:13.188Z,53.46
2018-10-17T16:26:42.153Z,50.58
2018-10-17T16:29:11.214Z,52.12
2018-10-17T16:31:40.280Z,52.97
2018-10-17T16:34:09.415Z,56.67
2018-10-17T16:39:14.193Z,57.73
2018-10-17T16:44:19.124Z,58.36
2018-10-17T16:46:48.158Z,64.29
2018-10-17T16:49:18.251Z,65.75
2018-10-17T16:54:26.645Z,60.06
2018-10-17T16:56:55.808Z,62.05
2018-10-17T16:59:24.789Z,63.67
2018-10-17T17:01:53.917Z,65.69
2018-10-17T17:04:23.080Z,69.54
2018-10-17T17:06:52.120Z,74.49
2018-10-17T17:09:21.168Z,69.13
2018-10-17T17:14:26.191Z,64.83
2018-10-17T17:16:55.237Z,74.45
2018-10-17T17:19:24.306Z,75.04
2018-10-17T17:21:54.660Z,73.96
2018-10-17T17:24:23.682Z,69.83
2018-10-17T17:26:52.757Z,68.53
2018-10-17T17:29:21.807Z,72.62
2018-10-17T17:31:50.841Z,76.10
2018-10-17T17:34:20.854Z,76.95
2018-10-17T17:36:49.929Z,76.03
2018-10-17T17:39:19.016Z,74.46
2018-10-17T17:41:49.066Z,79.54
2018-10-17T17:44:18.319Z,75.78
2018-10-17T17:46:48.390Z,79.21
2018-10-17T17:49:17.446Z,79.56
2018-10-17T17:51:47.502Z,80.51
2018-10-17T17:54:16.593Z,79.17
2018-10-17T17:56:46.624Z,79.50
2018-10-17T17:59:15.679Z,80.61
2018-10-17T18:01:44.731Z,84.02
2018-10-17T18:04:13.805Z,81.98
2018-10-17T18:06:42.970Z,86.62
2018-10-17T18:09:13.844Z,84.96
2018-10-17T18:11:44.906Z,87.90
2018-10-17T18:14:15.051Z,86.92
2018-10-17T18:16:44.090Z,82.95
2018-10-17T18:19:13.139Z,84.16
2018-10-17T18:21:42.204Z,80.35
2018-10-17T18:26:47.036Z,77.26
2018-10-17T18:29:16.094Z,80.53
2018-10-17T18:31:45.195Z,78.65
2018-10-17T18:34:14.283Z,83.80
2018-10-17T18:36:43.298Z,85.46
2018-10-17T18:39:12.353Z,83.57
2018-10-17T18:41:41.393Z,82.38
2018-10-17T18:44:10.441Z,82.80
2018-10-17T18:46:39.481Z,83.11
2018-10-17T18:49:08.542Z,79.90
2018-10-17T18:51:37.592Z,87.04
2018-10-17T18:54:08.665Z,85.85
2018-10-17T18:56:37.722Z,83.77
2018-10-17T18:59:06.769Z,84.13
2018-10-17T19:01:36.983Z,89.40
2018-10-17T19:06:41.739Z,82.02
2018-10-17T19:09:10.841Z,86.75
2018-10-17T19:11:39.863Z,81.03
2018-10-17T19:16:44.687Z,84.37
2018-10-17T19:19:13.740Z,90.45
2018-10-17T19:21:46.100Z,88.05
2018-10-17T19:24:18.173Z,93.81
2018-10-17T19:26:49.276Z,91.59
2018-10-17T19:29:20.250Z,95.02
2018-10-17T19:31:50.298Z,91.61
2018-10-17T19:34:19.344Z,90.35
2018-10-17T19:36:48.405Z,84.65
2018-10-17T19:39:17.473Z,92.46
2018-10-17T19:41:46.499Z,89.52
2018-10-17T19:44:15.529Z,90.81
2018-10-17T19:46:44.572Z,87.76
2018-10-17T19:49:13.609Z,91.44
2018-10-17T19:54:18.365Z,89.27
2018-10-17T19:59:23.108Z,90.47
2018-10-17T20:01:53.152Z,94.06
2018-10-17T20:04:22.198Z,91.60
2018-10-17T20:06:51.301Z,88.57
2018-10-17T20:09:20.347Z,92.83
2018-10-17T20:11:49.399Z,91.64
2018-10-17T20:16:54.180Z,94.64
2018-10-17T20:21:58.933Z,95.40
2018-10-17T20:27:03.692Z,87.80
2018-10-17T20:29:32.880Z,92.23
2018-10-17T20:32:02.182Z,93.90
2018-10-17T20:34:31.273Z,91.99
2018-10-17T20:37:00.322Z,90.39
2018-10-17T20:42:06.658Z,95.72
2018-10-17T20:44:35.670Z,96.13
2018-10-17T20:47:06.694Z,95.46
2018-10-17T20:49:35.774Z,97.40
2018-10-17T20:52:04.993Z,97.81
2018-10-17T20:54:34.097Z,98.75
2018-10-17T20:59:38.862Z,97.54
2018-10-17T21:04:43.608Z,96.54
2018-10-17T21:07:12.656Z,97.18
2018-10-17T21:09:41.709Z,98.14
2018-10-17T21:14:46.498Z,94.74
2018-10-17T21:19:51.306Z,92.46
2018-10-17T21:24:56.056Z,94.05
2018-10-17T21:27:25.105Z,95.13
2018-10-17T21:29:54.139Z,96.51
2018-10-17T21:32:23.181Z,96.46
2018-10-17T21:34:52.301Z,95.15
2018-10-17T21:37:22.334Z,96.60
2018-10-17T21:39:51.379Z,96.82
2018-10-17T21:47:32.848Z,94.55
2018-10-17T21:50:01.949Z,93.45
2018-10-17T21:55:07.338Z,91.60
2018-10-17T21:57:36.419Z,92.50
2018-10-17T22:00:05.460Z,96.37
2018-10-17T22:05:10.194Z,93.53
2018-10-17T22:07:39.258Z,96.60
2018-10-17T22:10:08.328Z,97.44
2018-10-17T22:12:37.376Z,96.00
2018-10-17T22:15:06.426Z,95.22
2018-10-17T22:17:35.491Z,97.45
2018-10-17T22:20:04.629Z,94.78
2018-10-17T22:22:35.592Z,95.93
2018-10-17T22:25:04.636Z,93.25
2018-10-17T22:27:33.688Z,97.94
2018-10-17T22:30:02.847Z,99.28
2018-10-17T22:32:32.722Z,99.34
2018-10-17T22:35:01.765Z,99.84
2018-10-17T22:40:06.514Z,100.00
2018-10-17T22:45:11.329Z,100.00
2018-10-17T22:47:42.359Z,100.00
2018-10-17T22:50:11.550Z,100.00
2018-10-17T22:52:40.453Z,100.00
2018-10-17T22:55:09.565Z,100.00
2018-10-17T22:57:38.575Z,100.00
2018-10-17T23:00:07.754Z,98.80
2018-10-17T23:02:36.806Z,100.00
2018-10-17T23:05:06.869Z,100.00
2018-10-17T23:07:35.924Z,100.00
2018-10-17T23:12:40.665Z,100.00
2018-10-17T23:17:45.433Z,100.00
2018-10-17T23:20:14.592Z,100.00
2018-10-17T23:22:43.567Z,100.00
2018-10-17T23:25:12.622Z,100.00
2018-10-17T23:30:17.370Z,100.00
2018-10-17T23:35:22.114Z,100.00
2018-10-17T23:40:27.005Z,100.00
2018-10-17T23:42:57.057Z,100.00
2018-10-17T23:45:26.100Z,100.00
2018-10-17T23:47:55.164Z,100.00
2018-10-17T23:50:24.200Z,100.00
2018-10-17T23:52:54.267Z,100.00
2018-10-17T23:55:23.301Z,100.00
